Aviation Digital Data Service (ADDS)

Output produced by TAFs form (0943 UTC 25 February 2018)
found at http://aviationweather.gov/adds/tafs/
 
KTEX 250907Z 2509/2606 29003KT 3SM -SN BKN014 BKN019 OVC024 
     FM251000 26008KT P6SM VCSH SCT008 BKN010 
     FM251600 27009KT P6SM FEW070 SCT100 
     FM260200 14005KT P6SM FEW100 FEW250